TimeEDT,TemperatureF,Dew PointF,Humidity,Sea Level PressureIn,VisibilityMPH,Wind Direction,Wind SpeedMPH,Gust SpeedMPH,PrecipitationIn,Events,Conditions,WindDirDegrees,DateUTC
12:54 AM,75.9,73.0,91,29.97,10.0,SSW,3.5,-,N/A,,Clear,210,2013-07-21 04:54:00
1:54 AM,75.9,72.0,87,29.96,10.0,South,8.1,-,N/A,,Clear,190,2013-07-21 05:54:00
2:45 AM,75.2,71.6,89,29.97,10.0,SSW,8.1,-,N/A,,Mostly Cloudy,210,2013-07-21 06:45:00
2:54 AM,73.9,71.1,91,29.95,10.0,SSW,6.9,-,N/A,,Scattered Clouds,210,2013-07-21 06:54:00
3:16 AM,73.4,71.6,94,29.97,10.0,SSW,4.6,-,N/A,,Mostly Cloudy,210,2013-07-21 07:16:00
3:54 AM,73.9,72.0,93,29.95,10.0,SW,4.6,-,N/A,,Mostly Cloudy,220,2013-07-21 07:54:00
4:54 AM,73.9,72.0,93,29.95,10.0,SSW,4.6,-,N/A,,Overcast,200,2013-07-21 08:54:00
5:54 AM,75.0,72.0,90,29.96,10.0,SW,4.6,-,N/A,,Overcast,220,2013-07-21 09:54:00
6:54 AM,75.0,72.0,90,29.96,10.0,Variable,3.5,-,N/A,,Overcast,0,2013-07-21 10:54:00
7:54 AM,75.9,72.0,87,29.97,9.0,SSW,4.6,-,N/A,,Overcast,210,2013-07-21 11:54:00
8:09 AM,75.2,71.6,89,30.00,9.0,SSW,3.5,-,N/A,,Overcast,210,2013-07-21 12:09:00
8:38 AM,77.0,73.4,89,30.00,10.0,WSW,5.8,-,N/A,,Mostly Cloudy,240,2013-07-21 12:38:00
8:54 AM,78.1,72.0,81,29.98,10.0,South,5.8,-,N/A,,Mostly Cloudy,190,2013-07-21 12:54:00
9:20 AM,78.8,71.6,78,30.00,10.0,SW,5.8,-,N/A,,Scattered Clouds,220,2013-07-21 13:20:00
9:54 AM,81.0,73.0,77,29.98,10.0,SSW,6.9,-,N/A,,Scattered Clouds,200,2013-07-21 13:54:00
10:18 AM,82.4,73.4,74,30.00,10.0,Variable,6.9,-,N/A,,Mostly Cloudy,0,2013-07-21 14:18:00
10:33 AM,82.4,73.4,74,30.01,10.0,SSW,6.9,-,N/A,,Scattered Clouds,200,2013-07-21 14:33:00
10:54 AM,82.9,73.0,72,29.99,10.0,WSW,9.2,-,N/A,,Mostly Cloudy,240,2013-07-21 14:54:00
11:46 AM,84.2,73.4,70,30.00,10.0,Variable,6.9,-,N/A,,Scattered Clouds,0,2013-07-21 15:46:00
11:54 AM,84.0,73.0,69,29.98,10.0,WSW,6.9,-,N/A,,Scattered Clouds,250,2013-07-21 15:54:00
12:54 PM,84.0,73.0,69,29.97,10.0,South,8.1,-,N/A,,Mostly Cloudy,190,2013-07-21 16:54:00
1:32 PM,86.0,73.4,66,29.98,10.0,South,6.9,-,N/A,,Mostly Cloudy,180,2013-07-21 17:32:00
1:40 PM,87.8,73.4,62,29.98,10.0,South,6.9,-,N/A,,Scattered Clouds,170,2013-07-21 17:40:00
1:54 PM,88.0,73.9,63,29.95,10.0,SSW,8.1,-,N/A,,Partly Cloudy,200,2013-07-21 17:54:00
2:49 PM,87.8,73.4,62,29.94,10.0,SE,5.8,-,N/A,Thunderstorm,Scattered Clouds,140,2013-07-21 18:49:00
2:54 PM,87.1,73.0,63,29.92,10.0,South,8.1,-,N/A,Thunderstorm,Mostly Cloudy,190,2013-07-21 18:54:00
3:04 PM,87.8,73.4,62,29.94,10.0,SSW,9.2,-,N/A,,Mostly Cloudy,200,2013-07-21 19:04:00
3:54 PM,84.9,73.0,67,29.91,10.0,South,5.8,-,N/A,,Partly Cloudy,180,2013-07-21 19:54:00
4:54 PM,77.0,70.0,79,29.94,10.0,NW,9.2,19.6,N/A,,Mostly Cloudy,320,2013-07-21 20:54:00
5:34 PM,73.4,71.6,94,29.96,6.0,NW,5.8,-,0.06,Rain-Thunderstorm,Light Rain,320,2013-07-21 21:34:00
5:54 PM,73.9,71.1,91,29.94,7.0,North,3.5,-,0.08,Rain,Light Rain,360,2013-07-21 21:54:00
6:54 PM,73.9,73.0,97,29.94,7.0,Calm,Calm,-,0.03,Rain,Light Rain,0,2013-07-21 22:54:00
7:41 PM,73.4,71.6,94,29.96,6.0,NNW,3.5,-,0.02,Rain,Light Rain,330,2013-07-21 23:41:00
7:54 PM,73.9,72.0,93,29.95,8.0,Calm,Calm,-,0.03,Rain,Light Rain,0,2013-07-21 23:54:00
8:54 PM,73.9,72.0,93,29.95,9.0,West,3.5,-,0.00,,Clear,270,2013-07-22 00:54:00
9:23 PM,73.4,71.6,94,29.97,6.0,Calm,Calm,-,N/A,,Partly Cloudy,0,2013-07-22 01:23:00
9:47 PM,73.4,71.6,94,29.99,5.0,South,5.8,-,N/A,,Mostly Cloudy,170,2013-07-22 01:47:00
9:54 PM,73.0,72.0,96,29.97,7.0,South,4.6,-,N/A,,Mostly Cloudy,180,2013-07-22 01:54:00
9:57 PM,73.4,71.6,94,29.99,7.0,South,4.6,-,N/A,,Scattered Clouds,190,2013-07-22 01:57:00
10:54 PM,73.0,72.0,96,29.96,7.0,Calm,Calm,-,N/A,,Clear,0,2013-07-22 02:54:00
11:54 PM,73.0,72.0,96,29.95,8.0,Calm,Calm,-,N/A,,Partly Cloudy,0,2013-07-22 03:54:00